createdAt,value
2023-04-01T00:00:41.196Z, 44.82
2023-04-01T00:01:41.303Z, 44.80
2023-04-01T00:02:41.409Z, 44.71
2023-04-01T00:03:41.400Z, 44.81
2023-04-01T00:04:41.526Z, 44.74
2023-04-01T00:05:41.268Z, 44.67
2023-04-01T00:06:41.329Z, 44.71
2023-04-01T00:07:41.287Z, 44.73
2023-04-01T00:08:41.311Z, 44.68
2023-04-01T00:09:41.316Z, 44.60
2023-04-01T00:10:41.405Z, 44.63
2023-04-01T00:11:41.369Z, 44.63
2023-04-01T00:12:41.354Z, 44.60
2023-04-01T00:13:41.374Z, 44.59
2023-04-01T00:14:41.401Z, 44.53
2023-04-01T00:15:41.492Z, 44.40
2023-04-01T00:16:41.476Z, 44.33
2023-04-01T00:17:41.450Z, 44.28
2023-04-01T00:18:41.485Z, 44.24
2023-04-01T00:19:41.469Z, 44.20
2023-04-01T00:20:41.537Z, 44.27
2023-04-01T00:21:41.493Z, 44.24
2023-04-01T00:22:41.486Z, 44.16
2023-04-01T00:23:41.500Z, 44.15
2023-04-01T00:24:41.529Z, 44.12
2023-04-01T00:25:41.515Z, 44.11
2023-04-01T00:26:41.532Z, 44.06
2023-04-01T00:27:41.527Z, 44.12
2023-04-01T00:28:41.545Z, 44.14
2023-04-01T00:29:41.628Z, 44.02
2023-04-01T00:30:41.604Z, 43.94
2023-04-01T00:31:41.735Z, 43.93
2023-04-01T00:32:41.690Z, 43.86
2023-04-01T00:33:41.668Z, 43.89
2023-04-01T00:34:41.648Z, 43.86
2023-04-01T00:35:41.647Z, 43.90
2023-04-01T00:36:41.718Z, 43.84
2023-04-01T00:37:41.686Z, 43.86
2023-04-01T00:38:41.761Z, 43.79
2023-04-01T00:39:41.712Z, 43.73
2023-04-01T00:40:41.764Z, 43.66
2023-04-01T00:41:41.750Z, 43.63
2023-04-01T00:42:41.784Z, 43.61
2023-04-01T00:43:41.763Z, 43.56
2023-04-01T00:44:41.812Z, 43.49
2023-04-01T00:45:41.787Z, 43.51
2023-04-01T00:46:41.826Z, 43.52
2023-04-01T00:47:41.807Z, 43.49
2023-04-01T00:48:41.797Z, 43.49
2023-04-01T00:49:41.804Z, 43.55
2023-04-01T00:50:41.845Z, 43.54
2023-04-01T00:51:41.813Z, 43.52
2023-04-01T00:52:41.849Z, 43.44
2023-04-01T00:53:41.861Z, 43.35
2023-04-01T00:54:41.865Z, 43.33
2023-04-01T00:55:41.942Z, 43.27
2023-04-01T00:56:41.921Z, 43.31
2023-04-01T00:57:41.944Z, 43.23
2023-04-01T00:58:41.929Z, 43.25
2023-04-01T00:59:42.012Z, 43.23
2023-04-01T01:00:41.990Z, 43.16
2023-04-01T01:01:42.147Z, 43.11
2023-04-01T01:02:42.121Z, 43.11
2023-04-01T01:03:41.998Z, 43.15
2023-04-01T01:04:42.001Z, 43.12
2023-04-01T01:05:48.708Z, 43.06
2023-04-01T01:06:42.028Z, 43.04
2023-04-01T01:07:42.039Z, 43.12
2023-04-01T01:08:42.108Z, 43.07
2023-04-01T01:09:42.084Z, 43.01
2023-04-01T01:10:42.128Z, 42.99
2023-04-01T01:11:43.746Z, 42.99
2023-04-01T01:12:42.193Z, 42.97
2023-04-01T01:13:42.149Z, 42.94
2023-04-01T01:14:42.172Z, 42.88
2023-04-01T01:15:42.147Z, 42.85
2023-04-01T01:16:42.258Z, 42.84
2023-04-01T01:17:42.200Z, 42.82
2023-04-01T01:18:42.170Z, 42.78
2023-04-01T01:19:42.183Z, 42.77
2023-04-01T01:20:42.201Z, 42.73
2023-04-01T01:21:42.199Z, 42.63
2023-04-01T01:22:42.204Z, 42.71
2023-04-01T01:23:42.230Z, 42.67
2023-04-01T01:24:42.233Z, 42.61
2023-04-01T01:25:42.306Z, 42.59
2023-04-01T01:26:42.280Z, 42.60
2023-04-01T01:27:42.328Z, 42.56
2023-04-01T01:28:42.309Z, 42.49
2023-04-01T01:29:42.311Z, 42.46
2023-04-01T01:30:42.355Z, 42.40
2023-04-01T01:31:42.314Z, 42.41
2023-04-01T01:32:42.458Z, 42.40
2023-04-01T01:33:42.369Z, 42.35
2023-04-01T01:34:42.440Z, 42.32
2023-04-01T01:35:42.442Z, 42.31
2023-04-01T01:36:42.408Z, 42.28
2023-04-01T01:37:42.405Z, 42.20
2023-04-01T01:38:42.401Z, 42.28
2023-04-01T01:39:42.466Z, 42.21
2023-04-01T01:40:42.438Z, 42.21
2023-04-01T01:41:42.584Z, 42.25
2023-04-01T01:42:42.467Z, 42.23
2023-04-01T01:43:42.454Z, 42.15
2023-04-01T01:44:42.474Z, 42.10
2023-04-01T01:45:42.533Z, 42.13
2023-04-01T01:46:42.549Z, 42.12
2023-04-01T01:47:42.549Z, 42.17
2023-04-01T01:48:42.583Z, 42.16
2023-04-01T01:49:42.540Z, 42.15
2023-04-01T01:50:42.598Z, 42.11
2023-04-01T01:51:42.559Z, 42.05
2023-04-01T01:52:42.644Z, 42.09
2023-04-01T01:53:42.596Z, 42.00
2023-04-01T01:54:42.604Z, 42.00
2023-04-01T01:55:42.589Z, 41.96
2023-04-01T01:56:42.598Z, 41.97
2023-04-01T01:57:42.618Z, 41.97
2023-04-01T01:58:42.628Z, 41.89
2023-04-01T01:59:42.636Z, 41.89
2023-04-01T02:00:42.663Z, 41.86
2023-04-01T02:01:42.849Z, 41.82
2023-04-01T02:02:42.720Z, 41.77
2023-04-01T02:03:42.745Z, 41.74
2023-04-01T02:04:42.773Z, 41.71
2023-04-01T02:05:42.734Z, 41.67
2023-04-01T02:06:42.733Z, 41.62
2023-04-01T02:07:42.736Z, 41.61
2023-04-01T02:08:42.750Z, 41.60
2023-04-01T02:09:42.751Z, 41.62
2023-04-01T02:10:42.764Z, 41.61
2023-04-01T02:11:42.797Z, 41.54
2023-04-01T02:12:42.843Z, 41.49
2023-04-01T02:13:42.818Z, 41.52
2023-04-01T02:14:42.896Z, 41.50
2023-04-01T02:15:42.916Z, 41.51
2023-04-01T02:16:42.874Z, 41.46
2023-04-01T02:17:42.952Z, 41.42
2023-04-01T02:18:42.940Z, 41.41
2023-04-01T02:19:42.935Z, 41.44
2023-04-01T02:20:42.933Z, 41.41
2023-04-01T02:21:42.981Z, 41.37
2023-04-01T02:22:42.940Z, 41.35
2023-04-01T02:23:42.955Z, 41.28
2023-04-01T02:24:42.959Z, 41.19
2023-04-01T02:25:43.028Z, 41.22
2023-04-01T02:26:43.030Z, 41.18
2023-04-01T02:27:43.060Z, 41.21
2023-04-01T02:28:43.027Z, 41.18
2023-04-01T02:29:43.094Z, 41.20
2023-04-01T02:30:43.074Z, 41.15
2023-04-01T02:31:43.090Z, 41.15
2023-04-01T02:32:43.097Z, 41.17
2023-04-01T02:33:43.069Z, 41.08
2023-04-01T02:34:43.060Z, 41.07
2023-04-01T02:35:43.081Z, 41.07
2023-04-01T02:36:43.106Z, 41.10
2023-04-01T02:37:43.092Z, 41.08
2023-04-01T02:38:43.146Z, 41.05
2023-04-01T02:39:43.128Z, 41.00
2023-04-01T02:40:43.223Z, 41.00
2023-04-01T02:41:43.186Z, 40.95
2023-04-01T02:42:43.225Z, 40.96
2023-04-01T02:43:43.214Z, 40.98
2023-04-01T02:44:43.219Z, 40.97
2023-04-01T02:45:43.279Z, 40.91
2023-04-01T02:46:43.278Z, 40.87
2023-04-01T02:47:43.303Z, 40.87
2023-04-01T02:48:43.247Z, 40.77
2023-04-01T02:49:43.392Z, 40.75
2023-04-01T02:50:43.301Z, 40.79
2023-04-01T02:51:43.389Z, 40.78
2023-04-01T02:52:43.323Z, 40.74
2023-04-01T02:53:43.351Z, 40.74
2023-04-01T02:54:43.350Z, 40.70
2023-04-01T02:55:43.375Z, 40.61
2023-04-01T02:56:43.355Z, 40.62
2023-04-01T02:57:43.390Z, 40.61
2023-04-01T02:58:43.377Z, 40.54
2023-04-01T02:59:43.412Z, 40.55
2023-04-01T03:00:43.439Z, 40.55
2023-04-01T03:01:43.401Z, 40.57
2023-04-01T03:02:43.469Z, 40.56
2023-04-01T03:03:43.436Z, 40.50
2023-04-01T03:04:43.422Z, 40.53
2023-04-01T03:05:43.432Z, 40.45
2023-04-01T03:06:43.498Z, 40.48
2023-04-01T03:07:43.458Z, 40.51
2023-04-01T03:08:43.535Z, 40.44
2023-04-01T03:09:43.518Z, 40.43
2023-04-01T03:10:43.522Z, 40.39
2023-04-01T03:11:43.541Z, 40.41
2023-04-01T03:12:43.515Z, 40.41
2023-04-01T03:13:43.558Z, 40.40
2023-04-01T03:14:43.563Z, 40.34
2023-04-01T03:15:43.578Z, 40.33
2023-04-01T03:16:43.661Z, 40.29
2023-04-01T03:17:43.642Z, 40.29
2023-04-01T03:18:43.600Z, 40.29
2023-04-01T03:19:43.616Z, 40.27
2023-04-01T03:20:43.626Z, 40.28
2023-04-01T03:21:43.641Z, 40.22
2023-04-01T03:22:43.652Z, 40.19
2023-04-01T03:23:43.722Z, 40.15
2023-04-01T03:24:43.679Z, 40.12
2023-04-01T03:25:43.746Z, 40.08
2023-04-01T03:26:43.712Z, 40.07
2023-04-01T03:27:43.725Z, 40.06
2023-04-01T03:28:43.734Z, 40.11
2023-04-01T03:29:43.776Z, 40.04
2023-04-01T03:30:43.815Z, 40.02
2023-04-01T03:31:43.819Z, 40.82
2023-04-01T03:32:43.898Z, 41.98
2023-04-01T03:33:43.855Z, 42.28
2023-04-01T03:34:43.859Z, 42.33
2023-04-01T03:35:43.836Z, 42.25
2023-04-01T03:36:43.868Z, 42.20
2023-04-01T03:37:43.850Z, 42.12
2023-04-01T03:38:43.900Z, 42.03
2023-04-01T03:39:44.765Z, 41.73
2023-04-01T03:40:43.948Z, 41.32
2023-04-01T03:41:43.948Z, 40.79
2023-04-01T03:42:43.968Z, 40.20
2023-04-01T03:43:43.946Z, 39.67
2023-04-01T03:44:43.941Z, 39.12
2023-04-01T03:45:44.012Z, 38.67
2023-04-01T03:46:44.010Z, 38.41
2023-04-01T03:47:44.102Z, 38.16
2023-04-01T03:48:44.021Z, 37.88
2023-04-01T03:49:44.051Z, 37.63
2023-04-01T03:50:44.029Z, 37.42
2023-04-01T03:51:44.025Z, 37.28
2023-04-01T03:52:44.015Z, 37.12
2023-04-01T03:53:44.029Z, 36.99
2023-04-01T03:54:44.041Z, 36.88
2023-04-01T03:55:44.044Z, 36.77
2023-04-01T03:56:44.065Z, 36.64
2023-04-01T03:57:44.100Z, 36.58
2023-04-01T03:58:44.085Z, 36.48
2023-04-01T03:59:44.112Z, 36.36
2023-04-01T04:00:44.188Z, 36.30
2023-04-01T04:01:44.161Z, 36.23
2023-04-01T04:02:44.263Z, 36.16
2023-04-01T04:03:44.240Z, 36.09
2023-04-01T04:04:44.232Z, 36.04
2023-04-01T04:05:44.183Z, 35.96
2023-04-01T04:06:44.195Z, 35.93
2023-04-01T04:07:44.199Z, 35.89
2023-04-01T04:08:44.215Z, 35.85
2023-04-01T04:09:44.309Z, 35.82
2023-04-01T04:10:44.286Z, 35.78
2023-04-01T04:11:44.275Z, 35.75
2023-04-01T04:12:44.277Z, 35.72
2023-04-01T04:13:44.278Z, 35.68
2023-04-01T04:14:44.283Z, 35.63
2023-04-01T04:15:44.308Z, 35.56
2023-04-01T04:16:44.296Z, 35.45
2023-04-01T04:17:44.365Z, 35.32
2023-04-01T04:18:44.340Z, 35.14
2023-04-01T04:19:44.344Z, 34.92
2023-04-01T04:20:44.439Z, 34.65
2023-04-01T04:21:44.416Z, 34.39
2023-04-01T04:22:44.409Z, 34.12
2023-04-01T04:23:44.401Z, 33.85
2023-04-01T04:24:44.419Z, 33.59
2023-04-01T04:25:44.494Z, 33.32
2023-04-01T04:26:44.473Z, 33.10
2023-04-01T04:27:44.556Z, 33.01
2023-04-01T04:28:44.524Z, 39.80
2023-04-01T04:29:44.513Z, 48.00
2023-04-01T04:30:44.500Z, 49.32
2023-04-01T04:31:44.606Z, 47.28
2023-04-01T04:32:44.558Z, 46.06
2023-04-01T04:33:44.541Z, 45.45
2023-04-01T04:34:44.527Z, 44.89
2023-04-01T04:35:44.657Z, 44.37
2023-04-01T04:36:44.582Z, 43.86
2023-04-01T04:37:44.577Z, 43.42
2023-04-01T04:38:44.587Z, 43.07
2023-04-01T04:39:44.590Z, 42.70
2023-04-01T04:40:44.661Z, 42.38
2023-04-01T04:41:44.638Z, 42.05
2023-04-01T04:42:44.640Z, 41.74
2023-04-01T04:43:44.697Z, 41.47
2023-04-01T04:44:44.668Z, 41.19
2023-04-01T04:45:44.738Z, 40.90
2023-04-01T04:46:44.746Z, 40.59
2023-04-01T04:47:44.739Z, 40.32
2023-04-01T04:48:44.714Z, 40.09
2023-04-01T04:49:44.722Z, 39.83
2023-04-01T04:50:44.815Z, 39.53
2023-04-01T04:51:44.786Z, 39.24
2023-04-01T04:52:44.827Z, 38.86
2023-04-01T04:53:44.811Z, 38.52
2023-04-01T04:54:44.866Z, 38.24
2023-04-01T04:55:44.827Z, 37.98
2023-04-01T04:56:44.851Z, 37.70
2023-04-01T04:57:44.831Z, 37.45
2023-04-01T04:58:44.870Z, 37.21
2023-04-01T04:59:44.840Z, 36.94
2023-04-01T05:00:44.860Z, 36.68
2023-04-01T05:01:45.035Z, 36.37
2023-04-01T05:02:45.000Z, 35.96
2023-04-01T05:03:44.982Z, 35.53
2023-04-01T05:04:44.911Z, 35.04
2023-04-01T05:05:44.915Z, 34.54
2023-04-01T05:06:44.913Z, 34.04
2023-04-01T05:07:44.916Z, 34.10
2023-04-01T05:08:45.062Z, 40.20
2023-04-01T05:09:44.964Z, 46.54
2023-04-01T05:10:45.015Z, 47.47
2023-04-01T05:11:44.976Z, 45.86
2023-04-01T05:12:45.080Z, 44.76
2023-04-01T05:13:45.037Z, 44.07
2023-04-01T05:14:45.063Z, 43.40
2023-04-01T05:15:45.042Z, 42.71
2023-04-01T05:16:45.114Z, 42.41
2023-04-01T05:17:45.096Z, 42.14
2023-04-01T05:18:45.082Z, 41.97
2023-04-01T05:19:45.089Z, 41.70
2023-04-01T05:20:45.096Z, 41.43
2023-04-01T05:21:45.102Z, 41.19
2023-04-01T05:22:45.107Z, 40.99
2023-04-01T05:23:45.197Z, 40.83
2023-04-01T05:24:45.182Z, 40.69
2023-04-01T05:25:45.209Z, 40.51
2023-04-01T05:26:45.215Z, 40.34
2023-04-01T05:27:45.209Z, 40.19
2023-04-01T05:28:45.200Z, 40.04
2023-04-01T05:29:45.197Z, 39.88
2023-04-01T05:30:45.218Z, 39.75
2023-04-01T05:31:45.210Z, 39.59
2023-04-01T05:32:45.304Z, 39.49
2023-04-01T05:33:45.264Z, 39.39
2023-04-01T05:34:45.324Z, 39.24
2023-04-01T05:35:45.313Z, 39.13
2023-04-01T05:36:45.353Z, 39.05
2023-04-01T05:37:45.324Z, 40.29
2023-04-01T05:38:45.348Z, 43.56
2023-04-01T05:39:45.336Z, 47.20
2023-04-01T05:40:45.375Z, 51.17
2023-04-01T05:41:45.361Z, 55.38
2023-04-01T05:42:45.368Z, 59.35
2023-04-01T05:43:45.380Z, 68.92
2023-04-01T05:44:45.380Z, 55.45
2023-04-01T05:45:45.488Z, 52.79
2023-04-01T05:46:45.462Z, 53.78
2023-04-01T05:47:45.514Z, 54.87
2023-04-01T05:48:45.478Z, 57.46
2023-04-01T05:49:45.474Z, 60.97
2023-04-01T05:50:45.479Z, 66.36
2023-04-01T05:51:45.508Z, 53.94
2023-04-01T05:52:45.514Z, 54.11
2023-04-01T05:53:45.531Z, 54.95
2023-04-01T05:54:45.518Z, 56.69
2023-04-01T05:55:45.568Z, 58.94
2023-04-01T05:56:47.552Z, 60.16
2023-04-01T05:57:45.569Z, 61.24
2023-04-01T05:58:45.632Z, 61.68
2023-04-01T05:59:45.603Z, 62.13
2023-04-01T06:00:46.747Z, 62.34
2023-04-01T06:01:45.642Z, 62.45
2023-04-01T06:02:45.738Z, 62.56
2023-04-01T06:03:45.807Z, 62.59
2023-04-01T06:04:45.718Z, 62.54
2023-04-01T06:05:45.699Z, 62.55
2023-04-01T06:06:45.685Z, 62.36
2023-04-01T06:07:45.751Z, 62.25
2023-04-01T06:08:45.740Z, 62.18
2023-04-01T06:09:45.771Z, 62.08
2023-04-01T06:10:45.828Z, 61.92
2023-04-01T06:11:45.789Z, 61.72
2023-04-01T06:12:45.771Z, 61.53
2023-04-01T06:13:45.830Z, 61.38
2023-04-01T06:14:45.804Z, 61.28
2023-04-01T06:15:45.836Z, 61.16
2023-04-01T06:16:45.849Z, 61.05
2023-04-01T06:17:46.925Z, 60.88
2023-04-01T06:18:45.831Z, 60.69
2023-04-01T06:19:45.832Z, 60.58
2023-04-01T06:20:45.909Z, 60.42
2023-04-01T06:21:45.901Z, 60.28
2023-04-01T06:22:45.908Z, 60.08
2023-04-01T06:23:45.875Z, 60.06
2023-04-01T06:24:45.889Z, 59.80
2023-04-01T06:25:45.892Z, 59.64
2023-04-01T06:26:45.918Z, 59.48
2023-04-01T06:27:45.971Z, 59.42
2023-04-01T06:28:45.966Z, 59.27
2023-04-01T06:29:45.954Z, 59.10
2023-04-01T06:30:45.969Z, 58.98
2023-04-01T06:31:46.001Z, 58.81
2023-04-01T06:32:46.012Z, 58.76
2023-04-01T06:33:46.003Z, 58.60
2023-04-01T06:34:46.074Z, 58.50
2023-04-01T06:35:46.175Z, 58.41
2023-04-01T06:36:46.134Z, 58.29
2023-04-01T06:37:46.091Z, 58.24
2023-04-01T06:38:46.128Z, 58.10
2023-04-01T06:39:46.157Z, 57.92
2023-04-01T06:40:46.127Z, 57.77
2023-04-01T06:41:46.249Z, 57.69
2023-04-01T06:42:46.234Z, 57.57
2023-04-01T06:43:46.221Z, 57.43
2023-04-01T06:44:46.223Z, 57.41
2023-04-01T06:45:46.275Z, 57.28
2023-04-01T06:46:46.223Z, 57.10
2023-04-01T06:47:46.235Z, 57.01
2023-04-01T06:48:46.246Z, 56.84
2023-04-01T06:49:46.227Z, 56.79
2023-04-01T06:50:46.228Z, 56.63
2023-04-01T06:51:46.221Z, 56.51
2023-04-01T06:52:46.231Z, 56.45
2023-04-01T06:53:46.242Z, 56.34
2023-04-01T06:54:46.516Z, 56.20
2023-04-01T06:55:46.307Z, 56.12
2023-04-01T06:56:46.389Z, 56.04
2023-04-01T06:57:46.330Z, 55.91
2023-04-01T06:58:46.330Z, 55.79
2023-04-01T06:59:46.331Z, 55.72
2023-04-01T07:00:46.343Z, 55.66
2023-04-01T07:01:46.468Z, 55.54
2023-04-01T07:02:46.453Z, 55.45
2023-04-01T07:03:46.422Z, 55.30
2023-04-01T07:04:46.470Z, 55.20
2023-04-01T07:05:46.400Z, 55.05
2023-04-01T07:06:46.416Z, 55.04
2023-04-01T07:07:46.427Z, 55.01
2023-04-01T07:08:46.426Z, 54.95
2023-04-01T07:09:46.425Z, 54.79
2023-04-01T07:10:46.513Z, 54.72
2023-04-01T07:11:46.471Z, 54.60
2023-04-01T07:12:46.549Z, 54.59
2023-04-01T07:13:46.550Z, 54.45
2023-04-01T07:14:46.548Z, 54.28
2023-04-01T07:15:46.538Z, 54.28
2023-04-01T07:16:46.586Z, 54.23
2023-04-01T07:17:46.557Z, 54.10
2023-04-01T07:18:46.594Z, 54.04
2023-04-01T07:19:46.569Z, 53.92
2023-04-01T07:20:46.572Z, 53.86
2023-04-01T07:21:46.662Z, 53.77
2023-04-01T07:22:46.642Z, 53.72
2023-04-01T07:23:46.671Z, 53.53
2023-04-01T07:24:46.653Z, 53.50
2023-04-01T07:25:46.662Z, 53.42
2023-04-01T07:26:48.134Z, 53.41
2023-04-01T07:27:46.711Z, 53.39
2023-04-01T07:28:46.697Z, 53.16
2023-04-01T07:29:46.703Z, 53.08
2023-04-01T07:30:46.794Z, 52.97
2023-04-01T07:31:46.753Z, 53.03
2023-04-01T07:32:46.867Z, 52.96
2023-04-01T07:33:46.786Z, 52.75
2023-04-01T07:34:46.819Z, 52.70
2023-04-01T07:35:46.836Z, 52.69
2023-04-01T07:36:46.857Z, 52.57
2023-04-01T07:37:46.833Z, 52.52
2023-04-01T07:38:46.912Z, 52.44
2023-04-01T07:39:46.853Z, 52.43
2023-04-01T07:40:46.910Z, 52.35
2023-04-01T07:41:46.882Z, 52.33
2023-04-01T07:42:46.887Z, 52.22
2023-04-01T07:43:46.936Z, 52.07
2023-04-01T07:44:46.919Z, 52.06
2023-04-01T07:45:46.941Z, 51.96
2023-04-01T07:46:46.994Z, 51.89
2023-04-01T07:47:47.018Z, 51.83
2023-04-01T07:48:46.974Z, 51.80
2023-04-01T07:49:46.997Z, 51.76
2023-04-01T07:50:47.896Z, 51.61
2023-04-01T07:51:46.979Z, 51.58
2023-04-01T07:52:46.998Z, 51.54
2023-04-01T07:53:47.014Z, 51.45
2023-04-01T07:54:46.997Z, 51.45
2023-04-01T07:55:47.017Z, 51.34
2023-04-01T07:56:47.086Z, 51.35
2023-04-01T07:57:47.058Z, 51.27
2023-04-01T07:58:47.129Z, 51.22
2023-04-01T07:59:47.073Z, 51.23
2023-04-01T08:00:47.145Z, 51.19
2023-04-01T08:01:47.133Z, 51.07
2023-04-01T08:02:47.252Z, 51.00
2023-04-01T08:03:47.311Z, 50.96
2023-04-01T08:04:47.230Z, 50.89
2023-04-01T08:05:47.192Z, 50.91
2023-04-01T08:06:47.213Z, 50.88
2023-04-01T08:07:47.200Z, 50.84
2023-04-01T08:08:47.209Z, 50.84
2023-04-01T08:09:47.193Z, 50.72
2023-04-01T08:10:47.198Z, 50.59
2023-04-01T08:11:47.194Z, 50.62
2023-04-01T08:12:47.216Z, 50.63
2023-04-01T08:13:47.230Z, 50.56
2023-04-01T08:14:47.251Z, 50.52
2023-04-01T08:15:47.328Z, 50.43
2023-04-01T08:16:47.324Z, 50.37
2023-04-01T08:17:47.382Z, 50.32
2023-04-01T08:18:47.336Z, 50.29
2023-04-01T08:19:47.413Z, 50.20
2023-04-01T08:20:47.381Z, 50.21
2023-04-01T08:21:47.384Z, 50.11
2023-04-01T08:22:47.380Z, 50.04
2023-04-01T08:23:47.383Z, 50.01
2023-04-01T08:24:48.364Z, 49.96
2023-04-01T08:25:47.403Z, 49.94
2023-04-01T08:26:47.503Z, 49.95
2023-04-01T08:27:47.460Z, 49.86
2023-04-01T08:28:47.492Z, 49.85
2023-04-01T08:29:47.467Z, 49.77
2023-04-01T08:30:47.532Z, 49.72
2023-04-01T08:31:47.525Z, 49.71
2023-04-01T08:32:47.592Z, 49.67
2023-04-01T08:33:47.543Z, 49.58
2023-04-01T08:34:47.544Z, 49.54
2023-04-01T08:35:47.598Z, 49.48
2023-04-01T08:36:47.538Z, 49.47
2023-04-01T08:37:47.592Z, 49.39
2023-04-01T08:38:47.638Z, 49.33
2023-04-01T08:39:47.651Z, 49.35
2023-04-01T08:40:47.600Z, 49.30
2023-04-01T08:41:47.658Z, 49.23
2023-04-01T08:42:47.634Z, 49.14
2023-04-01T08:43:47.636Z, 49.08
2023-04-01T08:44:47.643Z, 49.12
2023-04-01T08:45:47.691Z, 49.15
2023-04-01T08:46:47.675Z, 49.08
2023-04-01T08:47:47.716Z, 49.00
2023-04-01T08:48:47.699Z, 48.95
2023-04-01T08:49:47.723Z, 48.90
2023-04-01T08:50:47.712Z, 48.81
2023-04-01T08:51:47.740Z, 48.80
2023-04-01T08:52:47.759Z, 48.82
2023-04-01T08:53:47.767Z, 48.78
2023-04-01T08:54:47.773Z, 48.75
2023-04-01T08:55:47.779Z, 48.64
2023-04-01T08:56:47.857Z, 48.65
2023-04-01T08:57:48.354Z, 48.59
2023-04-01T08:58:47.883Z, 48.51
2023-04-01T08:59:47.863Z, 48.51
2023-04-01T09:00:47.873Z, 48.42
2023-04-01T09:01:47.877Z, 48.45
2023-04-01T09:02:48.028Z, 48.45
2023-04-01T09:03:48.077Z, 48.42
2023-04-01T09:04:47.923Z, 48.35
2023-04-01T09:05:47.909Z, 48.30
2023-04-01T09:06:47.913Z, 48.22
2023-04-01T09:07:47.994Z, 48.17
2023-04-01T09:08:47.955Z, 48.15
2023-04-01T09:09:48.010Z, 48.16
2023-04-01T09:10:47.983Z, 48.09
2023-04-01T09:11:48.518Z, 48.07
2023-04-01T09:12:48.007Z, 48.02
2023-04-01T09:13:48.073Z, 47.87
2023-04-01T09:14:48.038Z, 47.91
2023-04-01T09:15:48.094Z, 47.90
2023-04-01T09:16:48.105Z, 47.85
2023-04-01T09:17:48.232Z, 47.82
2023-04-01T09:18:48.117Z, 47.77
2023-04-01T09:19:48.102Z, 47.71
2023-04-01T09:20:48.180Z, 47.69
2023-04-01T09:21:48.149Z, 47.61
2023-04-01T09:22:48.182Z, 47.65
2023-04-01T09:23:48.153Z, 47.53
2023-04-01T09:24:48.187Z, 47.50
2023-04-01T09:25:48.174Z, 47.47
2023-04-01T09:26:48.214Z, 47.48
2023-04-01T09:27:48.193Z, 47.46
2023-04-01T09:28:48.193Z, 47.37
2023-04-01T09:29:48.199Z, 47.31
2023-04-01T09:30:48.209Z, 47.27
2023-04-01T09:31:48.357Z, 47.26
2023-04-01T09:32:48.309Z, 47.20
2023-04-01T09:33:48.321Z, 47.27
2023-04-01T09:34:48.306Z, 47.08
2023-04-01T09:35:48.347Z, 47.10
2023-04-01T09:36:48.523Z, 47.04
2023-04-01T09:37:48.310Z, 47.10
2023-04-01T09:38:48.310Z, 47.04
2023-04-01T09:39:48.344Z, 47.05
2023-04-01T09:40:48.421Z, 46.98
2023-04-01T09:41:48.336Z, 46.88
2023-04-01T09:42:48.364Z, 46.86
2023-04-01T09:43:48.387Z, 46.81
2023-04-01T09:44:48.466Z, 46.78
2023-04-01T09:45:48.435Z, 46.74
2023-04-01T09:46:48.510Z, 46.72
2023-04-01T09:47:48.490Z, 46.62
2023-04-01T09:48:48.437Z, 46.61
2023-04-01T09:49:48.522Z, 46.57
2023-04-01T09:50:48.499Z, 46.56
2023-04-01T09:51:48.491Z, 46.55
2023-04-01T09:52:48.496Z, 46.57
2023-04-01T09:53:48.505Z, 46.62
2023-04-01T09:54:48.541Z, 46.57
2023-04-01T09:55:48.528Z, 46.54
2023-04-01T09:56:48.599Z, 46.42
2023-04-01T09:57:48.542Z, 46.43
2023-04-01T09:58:48.588Z, 46.40
2023-04-01T09:59:48.575Z, 46.36
2023-04-01T10:00:48.591Z, 46.35
2023-04-01T10:01:48.673Z, 47.65
2023-04-01T10:02:48.626Z, 48.39
2023-04-01T10:03:48.629Z, 48.52
2023-04-01T10:04:48.697Z, 48.45
2023-04-01T10:05:48.707Z, 48.24
2023-04-01T10:06:48.708Z, 47.95
2023-04-01T10:07:48.705Z, 47.30
2023-04-01T10:08:48.751Z, 46.46
2023-04-01T10:09:48.749Z, 45.21
2023-04-01T10:10:48.750Z, 43.73
2023-04-01T10:11:48.731Z, 42.33
2023-04-01T10:12:48.744Z, 41.12
2023-04-01T10:13:48.805Z, 40.21
2023-04-01T10:14:48.813Z, 39.53
2023-04-01T10:15:48.834Z, 38.92
2023-04-01T10:16:49.179Z, 38.38
2023-04-01T10:17:48.856Z, 37.93
2023-04-01T10:18:48.872Z, 37.52
2023-04-01T10:19:48.844Z, 37.16
2023-04-01T10:20:48.889Z, 36.85
2023-04-01T10:21:48.863Z, 36.57
2023-04-01T10:22:48.907Z, 36.38
2023-04-01T10:23:48.895Z, 36.16
2023-04-01T10:24:48.886Z, 35.90
2023-04-01T10:25:48.892Z, 35.76
2023-04-01T10:26:48.896Z, 35.62
2023-04-01T10:27:48.912Z, 35.51
2023-04-01T10:28:48.959Z, 35.41
2023-04-01T10:29:48.950Z, 35.34
2023-04-01T10:30:48.969Z, 35.19
2023-04-01T10:31:49.007Z, 35.04
2023-04-01T10:32:48.986Z, 34.97
2023-04-01T10:33:49.061Z, 34.95
2023-04-01T10:34:49.039Z, 34.83
2023-04-01T10:35:49.117Z, 34.68
2023-04-01T10:36:49.081Z, 34.53
2023-04-01T10:37:49.102Z, 34.38
2023-04-01T10:38:49.067Z, 34.24
2023-04-01T10:39:49.081Z, 34.16
2023-04-01T10:40:49.081Z, 34.08
2023-04-01T10:41:49.078Z, 34.01
2023-04-01T10:42:49.131Z, 33.95
2023-04-01T10:43:49.109Z, 33.87
2023-04-01T10:44:49.191Z, 33.82
2023-04-01T10:45:49.218Z, 33.78
2023-04-01T10:46:49.165Z, 33.75
2023-04-01T10:47:49.234Z, 33.70
2023-04-01T10:48:49.193Z, 33.66
2023-04-01T10:49:49.212Z, 33.61
2023-04-01T10:50:49.204Z, 33.57
2023-04-01T10:51:49.273Z, 33.54
2023-04-01T10:52:49.269Z, 33.49
2023-04-01T10:53:49.273Z, 33.47
2023-04-01T10:54:49.273Z, 33.46
2023-04-01T10:55:49.266Z, 33.39
2023-04-01T10:56:49.370Z, 33.35
2023-04-01T10:57:49.288Z, 33.30
2023-04-01T10:58:49.318Z, 33.29
2023-04-01T10:59:49.307Z, 33.28
2023-04-01T11:00:49.370Z, 33.24
2023-04-01T11:01:57.685Z, 33.21
2023-04-01T11:02:49.596Z, 33.21
2023-04-01T11:03:49.504Z, 33.21
2023-04-01T11:04:49.442Z, 33.17
2023-04-01T11:05:49.400Z, 33.15
2023-04-01T11:06:49.477Z, 33.10
2023-04-01T11:07:59.119Z, 33.07
2023-04-01T11:08:49.464Z, 33.06
2023-04-01T11:09:49.451Z, 33.02
2023-04-01T11:10:49.501Z, 32.98
2023-04-01T11:11:49.480Z, 32.96
2023-04-01T11:12:49.514Z, 32.95
2023-04-01T11:13:49.524Z, 32.92
2023-04-01T11:14:49.544Z, 32.89
2023-04-01T11:15:49.508Z, 32.86
2023-04-01T11:16:49.510Z, 32.82
2023-04-01T11:17:49.701Z, 32.80
2023-04-01T11:18:49.580Z, 32.80
2023-04-01T11:19:49.629Z, 32.76
2023-04-01T11:20:49.617Z, 32.74
2023-04-01T11:21:49.632Z, 32.71
2023-04-01T11:22:49.618Z, 32.69
2023-04-01T11:24:02.250Z, 32.66
2023-04-01T11:24:49.635Z, 32.64
2023-04-01T11:25:49.642Z, 32.67
2023-04-01T11:26:49.740Z, 32.61
2023-04-01T11:27:49.697Z, 32.60
2023-04-01T11:28:49.740Z, 32.53
2023-04-01T11:29:59.333Z, 32.53
2023-04-01T11:30:49.746Z, 32.53
2023-04-01T11:31:49.848Z, 32.54
2023-04-01T11:32:49.897Z, 32.53
2023-04-01T11:33:49.760Z, 32.49
2023-04-01T11:34:49.830Z, 32.45
2023-04-01T11:35:49.793Z, 32.46
2023-04-01T11:36:49.826Z, 32.44
2023-04-01T11:37:49.819Z, 32.43
2023-04-01T11:38:49.813Z, 32.38
2023-04-01T11:39:49.790Z, 32.36
2023-04-01T11:40:49.812Z, 32.37
2023-04-01T11:41:49.896Z, 32.36
2023-04-01T11:42:49.876Z, 32.35
2023-04-01T11:43:49.918Z, 32.33
2023-04-01T11:44:49.893Z, 32.31
2023-04-01T11:45:49.949Z, 32.30
2023-04-01T11:46:49.929Z, 32.26
2023-04-01T11:47:50.025Z, 32.24
2023-04-01T11:48:50.002Z, 32.23
2023-04-01T11:49:49.959Z, 32.22
2023-04-01T11:50:49.961Z, 32.24
2023-04-01T11:51:49.973Z, 32.21
2023-04-01T11:52:49.993Z, 32.18
2023-04-01T11:53:49.993Z, 32.15
2023-04-01T11:54:50.062Z, 32.14
2023-04-01T11:55:50.761Z, 32.11
2023-04-01T11:56:50.107Z, 32.08
2023-04-01T11:57:50.072Z, 32.09
2023-04-01T11:58:50.127Z, 32.07
2023-04-01T11:59:50.095Z, 32.03
2023-04-01T12:00:50.097Z, 32.08
2023-04-01T12:01:50.103Z, 32.10
2023-04-01T12:02:50.259Z, 32.02
2023-04-01T12:03:50.303Z, 32.00
2023-04-01T12:04:50.182Z, 31.95
2023-04-01T12:05:50.152Z, 31.96
2023-04-01T12:06:50.158Z, 31.94
2023-04-01T12:07:50.174Z, 31.92
2023-04-01T12:08:50.170Z, 31.89
2023-04-01T12:09:50.186Z, 31.90
2023-04-01T12:10:50.279Z, 31.85
2023-04-01T12:11:50.248Z, 31.86
2023-04-01T12:13:00.014Z, 31.89
2023-04-01T12:13:50.319Z, 32.27
2023-04-01T12:14:50.276Z, 32.96
2023-04-01T12:15:50.347Z, 40.54
2023-04-01T12:16:50.473Z, 49.34
2023-04-01T12:17:50.390Z, 48.85
2023-04-01T12:18:50.329Z, 45.62
2023-04-01T12:19:50.325Z, 44.02
2023-04-01T12:20:50.324Z, 42.92
2023-04-01T12:21:50.332Z, 41.80
2023-04-01T12:22:50.431Z, 40.71
2023-04-01T12:23:50.422Z, 39.53
2023-04-01T12:24:50.432Z, 38.60
2023-04-01T12:25:50.427Z, 37.92
2023-04-01T12:26:50.432Z, 37.38
2023-04-01T12:27:51.944Z, 36.91
2023-04-01T12:28:50.471Z, 36.44